Time;durP1;ratioP1;P1;durP2;ratioP2;P2;SDS_P1;SDS_P2;PMS_P1;PMS_P2;Temp;Humidity;BMP_temperature;BMP_pressure;BME280_temperature;BME280_humidity;BME280_pressure;Samples;Min_cycle;Max_cycle;Signal;HPM_P1;HPM_P2
2022/01/11 00:00:31;;;;;;;19.53;11.33;;;2.80;99.90;;;3.11;71.03;98779.97;4963831;29;20053;-37
2022/01/11 00:03:17;;;;;;;23.08;11.57;;;2.80;99.90;;;3.12;71.29;98786.06;4963206;29;20051;-37
2022/01/11 00:06:15;;;;;;;19.37;10.97;;;2.80;99.90;;;3.11;71.27;98782.59;4963981;29;20057;-37
2022/01/11 00:08:45;;;;;;;19.37;11.23;;;2.80;99.90;;;3.11;71.15;98782.59;4963407;29;20050;-37
2022/01/11 00:11:13;;;;;;;27.03;14.60;;;2.80;99.90;;;3.11;71.14;98779.97;4963847;29;20051;-37
2022/01/11 00:13:42;;;;;;;28.43;14.73;;;2.70;99.90;;;3.09;71.05;98787.09;4963792;29;20062;-37
2022/01/11 00:16:13;;;;;;;25.20;13.10;;;2.70;99.90;;;3.09;71.29;98773.94;4963849;29;20061;-37
2022/01/11 00:18:41;;;;;;;23.07;11.77;;;2.70;99.90;;;3.10;70.98;98780.03;4963476;29;20057;-37
2022/01/11 00:21:10;;;;;;;21.50;12.27;;;2.80;99.90;;;3.09;71.16;98781.00;4964019;29;20251;-37
2022/01/11 00:26:07;;;;;;;23.70;11.73;;;2.70;99.90;;;3.10;71.46;98780.91;4963888;29;20311;-37
2022/01/11 00:28:34;;;;;;;28.93;12.03;;;2.80;99.90;;;3.11;71.01;98779.13;4963439;29;20055;-37
2022/01/11 00:31:21;;;;;;;21.50;11.23;;;2.70;99.90;;;3.10;70.99;98780.91;4946359;29;20410;-37
2022/01/11 00:33:51;;;;;;;23.43;11.80;;;2.70;99.90;;;3.08;71.14;98776.66;4963621;29;20051;-37
2022/01/11 00:36:19;;;;;;;18.97;10.60;;;2.70;99.90;;;3.09;71.09;98783.63;4946580;29;20057;-37
2022/01/11 00:38:47;;;;;;;22.10;11.80;;;2.70;99.90;;;3.11;71.14;98781.75;4960922;29;20062;-37
2022/01/11 00:41:15;;;;;;;23.63;11.53;;;2.80;99.90;;;3.12;71.21;98781.69;4962206;29;20348;-37
2022/01/11 00:43:43;;;;;;;25.90;12.77;;;2.80;99.90;;;3.15;71.30;98783.28;4955837;29;20054;-37
2022/01/11 00:46:14;;;;;;;22.97;12.23;;;2.80;99.90;;;3.14;71.15;98779.81;4959587;29;20051;-37
2022/01/11 00:48:42;;;;;;;21.37;12.10;;;2.80;99.90;;;3.14;71.16;98778.94;4962292;29;20039;-38
2022/01/11 00:51:10;;;;;;;20.57;12.33;;;2.80;99.90;;;3.13;71.46;98772.00;4963656;28;20047;-37
2022/01/11 00:53:41;;;;;;;22.10;13.10;;;2.80;99.90;;;3.13;71.12;98769.34;4967209;29;20043;-38
2022/01/11 00:56:09;;;;;;;26.10;13.20;;;2.70;99.90;;;3.13;71.03;98775.47;4966616;29;20054;-37
2022/01/11 00:58:37;;;;;;;26.17;13.20;;;2.70;99.90;;;3.12;71.15;98772.91;4966455;29;20047;-37
2022/01/11 01:01:05;;;;;;;22.57;13.53;;;2.80;99.90;;;3.11;71.11;98773.88;4950013;29;20051;-37
2022/01/11 01:03:34;;;;;;;27.60;12.27;;;2.70;99.90;;;3.10;71.26;98772.16;4966427;29;20055;-38
2022/01/11 01:06:02;;;;;;;27.53;13.53;;;2.70;99.90;;;3.12;71.38;98780.81;4967055;29;20235;-37
2022/01/11 01:08:31;;;;;;;23.87;13.77;;;2.70;99.90;;;3.11;71.31;98779.13;4949521;29;20055;-37
2022/01/11 01:10:59;;;;;;;27.60;14.07;;;2.70;99.90;;;3.12;71.47;98788.69;4967065;29;20065;-37
2022/01/11 01:13:32;;;;;;;26.60;14.20;;;2.70;99.90;;;3.11;71.33;98785.22;4949416;29;20244;-37
2022/01/11 01:16:05;;;;;;;23.83;13.53;;;2.70;99.90;;;3.10;71.36;98796.69;4967126;29;20059;-37
2022/01/11 01:18:53;;;;;;;23.23;12.83;;;2.70;99.90;;;3.12;71.07;98797.47;4965909;29;20062;-37
2022/01/11 01:21:21;;;;;;;23.43;13.13;;;2.80;99.90;;;3.14;71.36;98800.84;4949666;29;20054;-37
2022/01/11 01:23:49;;;;;;;24.90;14.00;;;2.80;99.90;;;3.18;71.78;98798.03;4949313;29;20236;-37
2022/01/11 01:26:18;;;;;;;26.63;13.87;;;2.80;99.90;;;3.17;71.22;98802.47;4966783;29;20158;-37
2022/01/11 01:28:47;;;;;;;26.43;13.97;;;2.80;99.90;;;3.18;71.14;98800.66;4966323;29;20058;-37
2022/01/11 01:31:16;;;;;;;23.33;13.87;;;2.90;99.90;;;3.19;71.34;98795.31;4966759;29;20051;-37
2022/01/11 01:33:45;;;;;;;24.60;13.20;;;2.90;99.90;;;3.19;71.29;98805.00;4958883;29;20215;-37
2022/01/11 01:36:13;;;;;;;24.43;13.40;;;2.90;99.90;;;3.22;71.55;98804.81;4966337;29;20055;-37
2022/01/11 01:38:41;;;;;;;28.63;14.13;;;2.90;99.90;;;3.24;71.22;98802.94;4932945;29;20047;-37
2022/01/11 01:41:16;;;;;;;28.77;15.13;;;2.90;99.90;;;3.24;71.35;98809.09;4966498;29;20047;-37
2022/01/11 01:43:48;;;;;;;21.70;12.40;;;2.90;99.90;;;3.23;71.00;98809.16;4957109;29;20261;-37
2022/01/11 01:46:17;;;;;;;20.87;12.53;;;2.90;99.90;;;3.23;71.51;98802.09;4966509;29;20047;-37
2022/01/11 01:48:46;;;;;;;23.00;12.87;;;2.90;99.90;;;3.25;71.21;98807.28;4958442;29;20049;-37
2022/01/11 01:51:15;;;;;;;25.80;14.67;;;2.90;99.90;;;3.26;71.18;98809.84;4948956;29;20051;-37
2022/01/11 01:53:47;;;;;;;27.27;14.67;;;3.00;99.90;;;3.29;71.22;98817.53;4966150;29;20047;-37
2022/01/11 01:56:20;;;;;;;25.03;15.10;;;3.00;99.90;;;3.31;71.29;98822.72;4948999;29;20069;-38
2022/01/11 01:58:50;;;;;;;24.65;14.02;;;3.00;99.90;;;3.29;70.97;98825.44;4947586;29;20051;-38
2022/01/11 02:01:18;;;;;;;27.33;14.43;;;3.00;99.90;;;3.30;70.95;98823.69;4949045;29;20062;-38
2022/01/11 02:03:47;;;;;;;32.00;14.70;;;3.00;99.90;;;3.30;71.48;98826.31;4957352;28;20372;-38
2022/01/11 02:06:18;;;;;;;26.40;14.20;;;3.00;99.90;;;3.28;71.39;98822.91;4948573;29;20051;-37
2022/01/11 02:08:49;;;;;;;27.87;14.53;;;2.90;99.90;;;3.27;71.01;98822.06;4958092;29;20237;-38
2022/01/11 02:11:20;;;;;;;24.57;14.23;;;2.90;99.90;;;3.25;71.01;98818.66;4948633;29;20055;-38
2022/01/11 02:13:48;;;;;;;24.63;13.00;;;2.90;99.90;;;3.24;71.16;98819.59;4948482;29;20059;-38
2022/01/11 02:16:21;;;;;;;25.67;14.17;;;2.90;99.90;;;3.25;71.28;98823.09;4966089;29;20055;-40
2022/01/11 02:18:54;;;;;;;26.10;13.90;;;2.90;99.90;;;3.22;71.03;98821.47;4964668;28;20377;-40
2022/01/11 02:21:24;;;;;;;26.27;14.40;;;2.90;99.90;;;3.22;71.19;98820.59;4948297;29;20070;-40
2022/01/11 02:23:54;;;;;;;29.77;15.50;;;2.80;99.90;;;3.22;71.04;98821.47;4948042;29;20051;-40
2022/01/11 02:26:24;;;;;;;27.27;14.27;;;2.80;99.90;;;3.21;70.92;98819.78;4965719;29;20057;-40
2022/01/11 02:28:53;;;;;;;28.17;13.90;;;2.90;99.90;;;3.22;71.37;98824.13;4963723;29;20062;-40
2022/01/11 02:31:22;;;;;;;23.50;13.63;;;2.90;99.90;;;3.19;71.00;98819.00;4947885;29;20055;-40
2022/01/11 02:33:58;;;;;;;22.33;13.53;;;2.80;99.90;;;3.17;70.97;98823.50;4964035;29;20051;-40
2022/01/11 02:36:38;;;;;;;26.70;14.35;;;2.80;99.90;;;3.14;70.99;98829.81;4947695;29;20055;-40
2022/01/11 02:39:16;;;;;;;27.13;14.27;;;2.70;99.90;;;3.13;70.89;98827.25;4964174;29;20055;-40
2022/01/11 02:41:57;;;;;;;28.80;14.93;;;2.70;99.90;;;3.13;71.02;98833.34;4948579;29;20057;-40
2022/01/11 02:44:44;;;;;;;32.80;15.43;;;2.80;99.90;;;3.13;71.27;98825.47;4947857;29;20128;-41
2022/01/11 02:47:19;;;;;;;24.13;14.23;;;2.80;99.90;;;3.14;71.03;98823.66;4947482;29;20057;-41
2022/01/11 02:49:50;;;;;;;29.80;16.60;;;2.80;99.90;;;3.14;71.14;98824.53;4941199;29;20047;-41
2022/01/11 02:52:23;;;;;;;27.67;15.63;;;2.80;99.90;;;3.15;71.05;98817.50;4963418;29;20058;-41
2022/01/11 02:54:55;;;;;;;27.33;16.13;;;2.80;99.90;;;3.13;70.96;98817.56;4947344;29;20061;-41
2022/01/11 02:57:23;;;;;;;30.93;16.20;;;2.70;99.90;;;3.14;71.08;98819.28;4963438;29;20059;-41
2022/01/11 02:59:57;;;;;;;33.15;16.08;;;2.80;99.90;;;3.17;71.46;98826.16;4964561;29;20063;-41
2022/01/11 03:02:26;;;;;;;28.77;17.70;;;2.80;99.90;;;3.13;71.01;98816.72;4947942;29;20066;-41
2022/01/11 03:04:55;;;;;;;30.50;16.90;;;2.80;99.90;;;3.11;71.22;98815.97;4963698;29;20047;-41
2022/01/11 03:07:25;;;;;;;31.83;17.57;;;2.70;99.90;;;3.10;71.06;98823.03;4963367;29;20061;-41
2022/01/11 03:12:24;;;;;;;28.67;16.20;;;2.70;99.90;;;3.12;71.13;98815.88;4963276;29;20051;-41
2022/01/11 03:14:52;;;;;;;33.40;18.33;;;2.80;99.90;;;3.10;71.14;98816.88;4947341;29;20051;-41
2022/01/11 03:17:21;;;;;;;33.60;17.40;;;2.70;99.90;;;3.08;71.11;98819.63;4947229;29;20127;-40
2022/01/11 03:19:49;;;;;;;34.20;17.50;;;2.70;99.90;;;3.08;71.21;98824.00;4963421;29;20379;-41
2022/01/11 03:22:17;;;;;;;39.57;18.73;;;2.70;99.90;;;3.10;71.21;98819.50;4963197;29;20252;-41
2022/01/11 03:24:45;;;;;;;44.90;18.97;;;2.80;99.90;;;3.10;71.33;98817.75;4963807;28;20059;-41
2022/01/11 03:27:14;;;;;;;35.73;18.90;;;2.80;99.90;;;3.11;71.25;98823.84;4946218;29;20050;-40
2022/01/11 03:29:43;;;;;;;35.07;18.30;;;2.80;99.90;;;3.10;71.04;98819.50;4947028;29;20144;-40
2022/01/11 03:32:18;;;;;;;40.33;18.00;;;2.80;99.90;;;3.10;71.12;98828.28;4947051;29;20361;-40
2022/01/11 03:35:09;;;;;;;36.37;19.40;;;2.80;99.90;;;3.12;71.52;98830.81;4946999;29;20085;-40
2022/01/11 03:37:38;;;;;;;32.03;17.37;;;2.80;99.90;;;3.14;71.19;98831.56;4963358;29;20063;-40
2022/01/11 03:40:13;;;;;;;36.50;18.33;;;2.80;99.90;;;3.12;71.23;98834.31;4946838;29;20055;-40
2022/01/11 03:42:43;;;;;;;34.03;18.87;;;2.80;99.90;;;3.12;71.13;98839.56;4946368;29;20268;-40
2022/01/11 03:45:13;;;;;;;33.80;18.97;;;2.80;99.90;;;3.07;71.38;98838.97;4964275;29;20065;-40
2022/01/11 03:47:41;;;;;;;38.57;19.73;;;2.70;99.90;;;3.05;71.42;98843.47;4961522;29;20043;-40
2022/01/11 03:50:11;;;;;;;31.97;17.20;;;2.70;99.90;;;3.05;71.41;98845.25;4946757;29;20050;-40
2022/01/11 03:52:41;;;;;;;32.97;17.00;;;2.70;99.90;;;3.07;71.54;98851.28;4962178;29;20055;-39
2022/01/11 03:55:15;;;;;;;35.13;18.17;;;2.70;99.90;;;3.08;71.47;98853.84;4962174;29;20055;-40
2022/01/11 03:57:49;;;;;;;36.27;16.57;;;2.70;99.90;;;3.02;71.38;98848.03;4946286;29;20051;-40
2022/01/11 04:00:19;;;;;;;33.33;17.63;;;2.60;99.90;;;2.97;71.20;98848.31;4964225;29;20210;-40
2022/01/11 04:02:50;;;;;;;38.23;16.43;;;2.60;99.90;;;2.93;71.49;98850.25;4955575;29;20051;-39
2022/01/11 04:05:20;;;;;;;33.17;16.80;;;2.60;99.90;;;2.94;71.46;98851.94;4962403;29;20043;-40
2022/01/11 04:07:47;;;;;;;33.37;15.87;;;2.60;99.90;;;2.90;71.33;98847.78;4961583;29;20047;-40
2022/01/11 04:10:15;;;;;;;29.20;15.00;;;2.50;99.90;;;2.90;71.54;98855.66;4963900;29;20057;-40
2022/01/11 04:12:47;;;;;;;38.23;15.80;;;2.50;99.90;;;2.89;71.57;98848.72;4946302;29;20047;-40
2022/01/11 04:15:16;;;;;;;34.53;16.63;;;2.50;99.90;;;2.88;71.54;98843.53;4946306;29;20055;-40
2022/01/11 04:17:45;;;;;;;35.23;15.83;;;2.50;99.90;;;2.89;71.58;98843.47;4962008;29;20054;-40
2022/01/11 04:20:14;;;;;;;33.00;16.87;;;2.50;99.90;;;2.89;71.96;98845.22;4945985;29;20059;-44
2022/01/11 04:22:42;;;;;;;46.50;19.93;;;2.50;99.90;;;2.91;71.76;98846.84;4947226;29;20341;-39
2022/01/11 04:25:11;;;;;;;31.40;17.30;;;2.50;99.90;;;2.91;71.54;98856.53;4946437;29;20054;-39
2022/01/11 04:27:39;;;;;;;39.27;19.37;;;2.50;99.90;;;2.93;71.78;98858.13;4947763;29;20047;-39
2022/01/11 04:30:07;;;;;;;35.57;18.63;;;2.50;99.90;;;2.96;71.75;98854.47;4950215;29;20374;-39
2022/01/11 04:32:35;;;;;;;36.63;19.00;;;2.60;99.90;;;2.97;71.85;98853.56;4966513;29;20055;-40
2022/01/11 04:35:04;;;;;;;35.97;18.93;;;2.60;99.90;;;2.97;71.59;98848.31;4950070;29;20344;-40
2022/01/11 04:37:32;;;;;;;31.70;17.53;;;2.60;99.90;;;2.98;71.73;98857.03;4967273;28;20051;-41
2022/01/11 04:40:00;;;;;;;28.77;15.80;;;2.60;99.90;;;2.94;71.54;98854.56;4966390;29;20268;-41
2022/01/11 04:42:32;;;;;;;32.27;16.27;;;2.60;99.90;;;2.97;71.53;98861.47;4950807;29;20047;-41
2022/01/11 04:45:01;;;;;;;30.67;16.80;;;2.60;99.90;;;2.97;71.65;98858.81;4949707;29;20051;-41
2022/01/11 04:47:29;;;;;;;29.43;14.53;;;2.60;99.90;;;2.98;71.69;98868.41;4949432;29;20057;-41
2022/01/11 04:49:59;;;;;;;32.37;15.73;;;2.60;99.90;;;3.00;71.90;98865.69;4950159;29;20059;-41
2022/01/11 04:52:26;;;;;;;30.40;15.93;;;2.60;99.90;;;3.02;71.91;98867.28;4967480;29;20047;-41
2022/01/11 04:54:54;;;;;;;34.63;16.37;;;2.60;99.90;;;3.06;71.94;98873.25;4950142;29;20057;-40
2022/01/11 04:57:43;;;;;;;39.53;21.67;;;2.70;99.90;;;3.10;71.88;98883.53;4948703;29;20055;-41
2022/01/11 05:00:14;;;;;;;38.33;20.30;;;2.80;99.90;;;3.15;71.96;98881.47;4949428;29;20077;-40
2022/01/11 05:02:43;;;;;;;32.00;18.53;;;2.80;99.90;;;3.19;71.51;98879.53;4950357;29;20058;-40
2022/01/11 05:05:11;;;;;;;35.27;18.00;;;2.90;99.90;;;3.20;71.70;98886.50;4949679;29;20059;-41
2022/01/11 05:07:45;;;;;;;34.93;16.80;;;2.80;99.90;;;3.20;71.87;98883.00;4966829;29;20268;-40
2022/01/11 05:10:13;;;;;;;30.10;17.23;;;2.90;99.90;;;3.16;71.66;98890.25;4965925;29;20051;-41
2022/01/11 05:12:42;;;;;;;38.17;18.40;;;2.80;99.90;;;3.18;71.69;98885.75;4949660;29;20051;-40
2022/01/11 05:15:14;;;;;;;36.03;18.83;;;2.90;99.90;;;3.15;71.74;98891.16;4949783;29;20047;-41
2022/01/11 05:17:44;;;;;;;38.63;22.43;;;2.80;99.90;;;3.14;71.46;98887.69;4963302;29;20245;-41
2022/01/11 05:20:13;;;;;;;31.07;18.57;;;2.80;99.90;;;3.14;71.61;98886.81;4965518;29;20120;-41
2022/01/11 05:22:42;;;;;;;34.97;19.77;;;2.80;99.90;;;3.15;71.76;98892.00;4949181;29;20055;-41
2022/01/11 05:25:13;;;;;;;34.50;18.30;;;2.80;99.90;;;3.12;71.04;98892.19;4949627;29;20059;-41
2022/01/11 05:27:42;;;;;;;36.00;18.57;;;2.70;99.90;;;3.11;72.29;98895.75;4964514;29;20264;-41
2022/01/11 05:30:15;;;;;;;29.52;16.58;;;2.70;99.90;;;3.11;71.60;98894.91;4965485;29;20055;-41
2022/01/11 05:32:43;;;;;;;29.23;16.40;;;2.70;99.90;;;3.11;71.81;98890.47;4948104;29;20065;-41
2022/01/11 05:35:12;;;;;;;33.23;15.53;;;2.80;99.90;;;3.08;71.69;98893.31;4964994;29;20061;-41
2022/01/11 05:37:40;;;;;;;26.50;15.63;;;2.80;99.90;;;3.04;71.75;98902.25;4964341;28;20055;-41
2022/01/11 05:40:10;;;;;;;26.73;14.37;;;2.70;99.90;;;2.98;71.75;98899.13;4949035;29;20357;-41
2022/01/11 05:42:40;;;;;;;29.20;16.13;;;2.60;99.90;;;2.98;71.67;98905.22;4949059;29;20051;-41
2022/01/11 05:45:11;;;;;;;25.17;14.33;;;2.60;99.90;;;2.98;71.60;98913.13;4948558;29;20065;-41
2022/01/11 05:47:41;;;;;;;24.53;14.37;;;2.60;99.90;;;3.00;71.57;98902.53;4964479;29;20051;-41
2022/01/11 05:50:14;;;;;;;27.13;16.90;;;2.60;99.90;;;3.03;71.83;98918.16;4964283;29;20249;-41
2022/01/11 05:52:45;;;;;;;26.17;15.53;;;2.70;99.90;;;3.03;71.76;98911.09;4941053;29;20055;-41
2022/01/11 05:55:13;;;;;;;31.53;16.63;;;2.70;99.90;;;3.04;71.80;98920.69;4965966;29;20043;-41
2022/01/11 05:57:42;;;;;;;22.87;13.43;;;2.70;99.90;;;3.02;71.72;98917.28;4947766;29;20058;-41
2022/01/11 06:00:15;;;;;;;25.03;15.03;;;2.70;99.90;;;3.00;71.96;98923.56;4964593;29;20055;-41
2022/01/11 06:02:52;;;;;;;24.83;14.67;;;2.60;99.90;;;2.97;71.44;98921.97;4964408;29;20418;-41
2022/01/11 06:05:38;;;;;;;24.87;14.93;;;2.60;99.90;;;2.93;71.80;98929.16;4954422;29;20051;-41
2022/01/11 06:08:09;;;;;;;28.87;14.77;;;2.60;99.90;;;2.95;71.72;98931.72;4964256;29;20158;-41
2022/01/11 06:10:39;;;;;;;25.37;13.07;;;2.60;99.90;;;2.97;71.88;98932.50;4949429;28;20345;-41
2022/01/11 06:13:07;;;;;;;22.50;13.77;;;2.60;99.90;;;3.01;71.60;98935.81;4948453;29;20616;-41
2022/01/11 06:15:35;;;;;;;23.10;15.20;;;2.70;99.90;;;3.00;71.76;98939.38;4964986;28;20241;-40
2022/01/11 06:18:06;;;;;;;28.00;14.20;;;2.70;99.90;;;3.00;72.19;98936.72;4948261;29;20066;-40
2022/01/11 06:20:42;;;;;;;28.97;16.47;;;2.70;99.90;;;2.99;71.92;98935.88;4964282;29;20059;-40
2022/01/11 06:23:10;;;;;;;26.77;14.73;;;2.60;99.90;;;2.96;71.86;98930.78;4964141;29;20047;-40
2022/01/11 06:25:38;;;;;;;27.77;15.50;;;2.60;99.90;;;2.92;71.78;98935.34;4948349;29;20047;-40
2022/01/11 06:28:06;;;;;;;26.37;14.03;;;2.50;99.90;;;2.93;71.52;98949.38;4964132;28;20363;-40
2022/01/11 06:30:37;;;;;;;31.67;16.90;;;2.60;99.90;;;2.93;72.12;98941.47;4965608;29;20047;-40
2022/01/11 06:33:05;;;;;;;30.80;15.10;;;2.60;99.90;;;2.93;71.63;98949.38;4948268;29;20058;-40
2022/01/11 06:35:33;;;;;;;27.67;14.80;;;2.60;99.90;;;2.93;72.06;98947.59;4964216;29;20057;-40
2022/01/11 06:38:01;;;;;;;25.30;15.17;;;2.60;99.90;;;2.93;71.84;98952.84;4963258;29;20073;-40
2022/01/11 06:40:30;;;;;;;29.13;15.70;;;2.60;99.90;;;2.90;71.98;98955.63;4947846;29;20073;-40
2022/01/11 06:42:59;;;;;;;28.57;17.03;;;2.60;99.90;;;2.90;71.51;98958.25;4948450;29;20054;-40
2022/01/11 06:45:28;;;;;;;37.03;17.93;;;2.50;99.90;;;2.92;71.90;98958.19;4947308;29;20054;-40
2022/01/11 06:48:00;;;;;;;27.93;16.37;;;2.60;99.90;;;2.95;71.96;98956.25;4960920;29;20065;-40
2022/01/11 06:50:32;;;;;;;26.60;17.57;;;2.60;99.90;;;2.98;71.93;98965.75;4946431;29;20047;-40
2022/01/11 06:53:00;;;;;;;27.23;15.03;;;2.70;99.90;;;3.01;71.82;98970.03;4964031;29;20057;-40
2022/01/11 06:55:29;;;;;;;33.67;17.03;;;2.70;99.90;;;2.99;71.74;98971.88;4948534;29;20047;-40
2022/01/11 06:58:01;;;;;;;27.83;16.37;;;2.70;99.90;;;2.99;71.94;98971.88;4963034;29;20059;-40
2022/01/11 07:00:31;;;;;;;28.37;16.67;;;2.70;99.90;;;3.00;71.72;98968.31;4963891;29;20059;-40
2022/01/11 07:03:05;;;;;;;52.22;27.55;;;2.70;99.90;;;3.01;71.85;98973.50;4948192;29;20249;-40
2022/01/11 07:05:48;;;;;;;39.63;21.57;;;2.70;99.90;;;3.05;71.76;98972.41;4968879;28;20077;-40
2022/01/11 07:08:16;;;;;;;28.87;17.37;;;2.80;99.90;;;3.07;71.75;98977.59;4947016;29;20244;-40
2022/01/11 07:10:44;;;;;;;32.73;17.90;;;2.80;99.90;;;3.09;71.79;98973.09;4947372;29;20061;-40
2022/01/11 07:13:12;;;;;;;24.50;15.63;;;2.80;99.90;;;3.10;71.95;98983.53;4963258;29;20047;-40
2022/01/11 07:15:41;;;;;;;27.23;15.13;;;2.80;99.90;;;3.07;71.69;98985.47;4948471;28;20047;-41
2022/01/11 07:18:12;;;;;;;22.03;13.47;;;2.80;99.90;;;3.05;71.57;98989.97;4947556;29;20082;-40
2022/01/11 07:20:45;;;;;;;24.43;14.23;;;2.70;99.90;;;3.00;72.10;98986.72;4964890;29;20051;-40
2022/01/11 07:23:23;;;;;;;24.63;15.53;;;2.70;99.90;;;2.95;71.83;98994.88;4947429;29;20051;-40
2022/01/11 07:25:51;;;;;;;29.97;16.37;;;2.60;99.90;;;2.94;71.75;98998.41;4945997;29;20074;-40
2022/01/11 07:28:23;;;;;;;28.10;17.73;;;2.60;99.90;;;2.95;71.73;99005.38;4946628;29;20047;-40
2022/01/11 07:30:52;;;;;;;30.03;16.10;;;2.60;99.90;;;2.91;71.67;99009.13;4963622;29;20057;-40
2022/01/11 07:33:21;;;;;;;26.63;15.43;;;2.60;99.90;;;2.88;71.84;99004.00;4947360;29;20372;-40
2022/01/11 07:35:52;;;;;;;25.70;14.70;;;2.50;99.90;;;2.87;71.89;99012.81;4965192;29;20058;-40
2022/01/11 07:38:21;;;;;;;25.07;15.67;;;2.50;99.90;;;2.88;71.96;99014.53;4962634;29;20361;-40
2022/01/11 07:40:48;;;;;;;27.67;15.70;;;2.60;99.90;;;2.91;71.81;99014.38;4964682;29;20047;-40
2022/01/11 07:43:27;;;;;;;28.43;15.67;;;2.60;99.90;;;2.92;72.29;99016.91;4964401;29;20063;-41
2022/01/11 07:45:59;;;;;;;24.97;15.13;;;2.60;99.90;;;2.95;71.81;99014.13;4947197;29;20055;-40
2022/01/11 07:48:35;;;;;;;26.57;14.80;;;2.70;99.90;;;2.99;71.93;99019.25;4946537;29;20333;-40
2022/01/11 07:51:06;;;;;;;28.97;17.83;;;2.70;99.90;;;3.02;71.98;99021.69;4947256;29;20051;-40
2022/01/11 07:53:36;;;;;;;30.07;16.83;;;2.80;99.90;;;3.04;71.76;99027.72;4946932;29;20051;-40
2022/01/11 07:56:11;;;;;;;27.97;16.53;;;2.80;99.90;;;3.04;71.85;99025.94;4963224;29;20074;-40
2022/01/11 07:58:38;;;;;;;30.47;18.07;;;2.80;99.90;;;3.05;71.95;99026.81;4946467;29;20057;-39
2022/01/11 08:01:08;;;;;;;28.63;16.80;;;2.70;99.90;;;3.03;71.90;99026.88;4947420;29;20055;-39
2022/01/11 08:03:41;;;;;;;28.03;16.97;;;2.70;99.90;;;3.02;71.60;99025.16;4946289;29;20054;-40
2022/01/11 08:06:32;;;;;;;26.93;15.83;;;2.70;99.90;;;3.04;71.93;99031.19;4962779;29;20065;-40
2022/01/11 08:09:18;;;;;;;27.50;16.53;;;2.70;99.90;;;3.05;71.86;99026.81;4962907;29;20053;-40
2022/01/11 08:11:49;;;;;;;26.10;16.60;;;2.70;99.90;;;3.07;72.13;99031.03;4962900;29;20055;-40
2022/01/11 08:14:17;;;;;;;34.53;19.83;;;2.80;99.90;;;3.07;72.12;99032.84;4962928;29;20046;-39
2022/01/11 08:16:46;;;;;;;33.10;19.17;;;2.80;99.90;;;3.11;72.24;99034.38;4962100;29;20057;-39
2022/01/11 08:19:15;;;;;;;32.73;18.43;;;2.80;99.90;;;3.15;72.09;99042.00;4962485;29;20053;-40
2022/01/11 08:21:43;;;;;;;25.77;15.43;;;2.90;99.90;;;3.18;72.02;99051.56;4947250;29;20047;-40
2022/01/11 08:24:11;;;;;;;27.47;15.37;;;2.90;99.90;;;3.17;71.88;99044.56;4962147;28;20055;-39
2022/01/11 08:26:41;;;;;;;31.97;18.53;;;2.90;99.90;;;3.19;72.33;99047.97;4946274;29;20050;-40
2022/01/11 08:29:09;;;;;;;31.37;18.80;;;2.90;99.90;;;3.23;71.89;99052.13;4963857;29;20337;-39
2022/01/11 08:31:39;;;;;;;30.93;17.50;;;2.90;99.90;;;3.24;72.07;99048.59;4962553;29;20054;-46
2022/01/11 08:34:11;;;;;;;28.53;18.97;;;3.00;99.90;;;3.26;72.29;99057.25;4947259;29;20051;-40
2022/01/11 08:36:44;;;;;;;28.30;18.43;;;3.00;99.90;;;3.25;71.94;99057.34;4946277;29;20057;-40
2022/01/11 08:39:14;;;;;;;;;;;3.00;99.90;;;3.23;71.58;99054.78;4946857;29;20256;-40
2022/01/11 08:41:43;;;;;;;27.27;14.97;;;3.00;99.90;;;3.28;72.13;99058.03;4946995;29;19924;-39
2022/01/11 08:44:11;;;;;;;25.47;14.73;;;3.00;99.90;;;3.33;72.29;99058.66;4963881;29;20051;-39
2022/01/11 08:46:43;;;;;;;23.83;15.43;;;3.00;99.90;;;3.34;72.38;99062.97;4946136;29;20059;-39
2022/01/11 08:49:18;;;;;;;31.77;15.87;;;3.00;99.90;;;3.37;72.03;99058.47;4946017;29;20233;-39
2022/01/11 08:51:46;;;;;;;28.13;15.73;;;3.10;99.90;;;3.37;72.17;99054.03;4946388;29;20058;-40
2022/01/11 08:54:14;;;;;;;24.33;14.67;;;3.10;99.90;;;3.35;71.87;99058.53;4946129;29;20059;-39
2022/01/11 08:56:45;;;;;;;24.40;14.37;;;3.00;99.90;;;3.36;72.39;99065.53;4944417;29;20057;-40
2022/01/11 08:59:13;;;;;;;28.13;14.33;;;3.10;99.90;;;3.39;72.09;99057.44;4944623;29;20050;-40
2022/01/11 09:01:42;;;;;;;26.93;14.20;;;3.10;99.90;;;3.40;72.20;99071.47;4938268;29;20052;-40
2022/01/11 09:04:12;;;;;;;26.20;14.67;;;3.10;99.90;;;3.41;72.07;99070.53;4961499;29;20051;-40
2022/01/11 09:06:57;;;;;;;28.67;14.50;;;3.20;99.90;;;3.42;71.87;99081.00;4953039;29;20059;-39
2022/01/11 09:09:28;;;;;;;24.47;14.07;;;3.20;99.90;;;3.44;71.85;99078.28;4961232;29;20063;-40
2022/01/11 09:12:03;;;;;;;25.23;15.73;;;3.20;99.90;;;3.41;72.09;99078.44;4945191;28;20057;-39
2022/01/11 09:14:33;;;;;;;25.17;14.63;;;3.10;99.90;;;3.42;71.96;99081.00;4945609;29;20357;-40
2022/01/11 09:17:02;;;;;;;30.10;17.50;;;3.20;99.90;;;3.47;72.07;99086.00;4961083;29;20061;-40
2022/01/11 09:19:32;;;;;;;25.13;15.00;;;3.30;99.90;;;3.47;71.79;99093.91;4953495;29;20232;-39
2022/01/11 09:22:01;;;;;;;25.23;14.53;;;3.30;99.90;;;3.49;71.88;99092.03;4948146;29;20051;-39
2022/01/11 09:24:36;;;;;;;25.70;15.80;;;3.30;99.90;;;3.54;71.97;99088.22;4965503;29;20051;-40
2022/01/11 09:27:08;;;;;;;29.73;16.13;;;3.30;99.90;;;3.56;71.99;99085.50;4949330;29;20059;-40
2022/01/11 09:29:39;;;;;;;28.97;15.87;;;3.40;99.90;;;3.60;72.20;99088.84;4965340;29;20069;-40
2022/01/11 09:32:09;;;;;;;31.37;17.03;;;3.30;99.90;;;3.61;72.23;99085.28;4948983;29;20077;-40
2022/01/11 09:34:39;;;;;;;31.67;17.20;;;3.40;99.90;;;3.63;71.74;99081.63;4948666;29;20058;-40
2022/01/11 09:37:11;;;;;;;;;;;3.40;99.90;;;3.61;71.80;99087.91;4949127;29;20051;-39
2022/01/11 09:39:41;;;;;;;25.30;14.23;;;3.40;99.90;;;3.67;72.03;99088.44;4963942;29;19918;-40
2022/01/11 09:42:11;;;;;;;32.47;17.03;;;3.40;99.90;;;3.70;71.88;99085.66;4947841;29;20053;-40
2022/01/11 09:44:40;;;;;;;26.27;15.23;;;3.50;99.90;;;3.72;71.93;99085.53;4948716;29;20047;-40
2022/01/11 09:47:12;;;;;;;28.23;16.60;;;3.50;99.90;;;3.73;71.98;99087.25;4965854;29;20049;-40
2022/01/11 09:49:45;;;;;;;26.57;16.43;;;3.50;99.90;;;3.77;72.05;99087.94;4937993;29;20051;-40
2022/01/11 09:52:14;;;;;;;23.53;16.33;;;3.50;99.90;;;3.82;72.10;99085.88;4964875;29;20051;-40
2022/01/11 10:28:57;;;;;;;25.87;15.10;;;3.80;99.90;;;4.06;71.47;99096.88;4944319;29;20058;-37
2022/01/11 10:31:35;;;;;;;27.07;15.30;;;3.80;99.90;;;4.10;72.13;99101.03;4964472;29;20078;-37
2022/01/11 10:34:04;;;;;;;25.10;14.17;;;3.90;99.90;;;4.14;71.88;99092.88;4980296;28;20047;-37
2022/01/11 10:36:45;;;;;;;27.70;15.10;;;3.90;99.90;;;4.16;71.18;99090.16;4979832;28;20046;-37
2022/01/11 10:39:35;;;;;;;27.83;16.73;;;4.00;99.90;;;4.22;71.39;99100.34;4980290;28;20061;-37
2022/01/11 10:42:30;;;;;;;27.97;17.53;;;4.00;99.90;;;4.23;71.79;99083.63;4975574;28;20057;-37
2022/01/11 10:45:21;;;;;;;30.57;16.23;;;4.00;99.90;;;4.29;71.90;99090.34;4942715;29;20055;-37
2022/01/11 10:47:56;;;;;;;26.37;15.37;;;4.10;99.90;;;4.34;71.70;99091.78;4947387;29;20055;-37
2022/01/11 10:50:46;;;;;;;32.13;16.17;;;4.10;99.90;;;4.40;71.44;99084.44;4964749;28;20051;-37
2022/01/11 10:53:21;;;;;;;29.83;16.90;;;4.20;99.90;;;4.44;71.85;99083.31;4976680;28;20337;-37
2022/01/11 10:55:53;;;;;;;25.93;15.27;;;4.30;99.90;;;4.48;71.88;99085.72;4941547;29;20051;-37
2022/01/11 10:59:10;;;;;;;24.87;14.83;;;4.30;99.90;;;4.51;71.91;99093.44;4971954;28;20055;-37
2022/01/11 11:01:48;;;;;;;23.00;14.93;;;4.30;99.90;;;4.54;71.73;99101.19;4980139;28;20055;-37
2022/01/11 11:04:33;;;;;;;28.33;16.27;;;4.40;99.90;;;4.56;71.83;99095.81;4947323;29;20051;-37
2022/01/11 11:07:13;;;;;;;24.13;15.03;;;4.40;99.90;;;4.60;71.03;99085.97;4962831;28;20077;-37
2022/01/11 11:09:50;;;;;;;25.23;15.67;;;4.40;99.90;;;4.61;71.46;99093.75;4962274;29;20058;-37
2022/01/11 11:12:23;;;;;;;30.57;16.03;;;4.50;99.90;;;4.65;71.50;99092.66;4979671;28;20053;-37
2022/01/11 11:15:02;;;;;;;22.87;14.97;;;4.50;99.90;;;4.66;71.69;99091.72;4979344;28;20055;-37
2022/01/11 11:17:37;;;;;;;28.17;16.37;;;4.50;99.90;;;4.68;71.29;99094.28;4947598;29;20326;-40